Terminal Aerodrome Forecast
Issued by NWS

Home | Current Version | Previous Version | Text Only | Print | Product List | Glossary On
Versions: 1 2 3 4 5 6 7 8 9 10 11 12 13 14 15 16 17
000
FTUS45 KTFX 251100
TAFHLN
TAF
KHLN 251131Z 2512/2612 25012KT P6SM OVC050
     FM251600 26016KT P6SM BKN200
     FM252200 26008KT P6SM BKN200
     FM260400 VRB03KT P6SM SCT200=

USA.gov is the U.S. government's official web portal to all federal, state and local government web resources and services.